Time;durP1;ratioP1;P1;durP2;ratioP2;P2;SDS_P1;SDS_P2;PMS_P1;PMS_P2;Temp;Humidity;BMP_temperature;BMP_pressure;BME280_temperature;BME280_humidity;BME280_pressure;Samples;Min_cycle;Max_cycle;Signal;HPM_P1;HPM_P2
2021/03/17 00:00:31;;;;;;;32.67;19.90;;;6.10;99.90;;;;;;5044614;28;20204;-64
2021/03/17 00:02:58;;;;;;;28.00;17.50;;;6.00;99.90;;;;;;5040527;28;20199;-67
2021/03/17 00:05:28;;;;;;;27.83;16.83;;;5.90;99.90;;;;;;5042217;28;20344;-63
2021/03/17 00:07:55;;;;;;;27.97;17.97;;;5.90;99.90;;;;;;5039785;28;20211;-62
2021/03/17 00:10:22;;;;;;;32.40;18.37;;;5.80;99.90;;;;;;5040921;28;21293;-63
2021/03/17 00:12:49;;;;;;;34.33;19.87;;;5.80;99.90;;;;;;5038529;28;20200;-63
2021/03/17 00:15:18;;;;;;;34.37;20.47;;;5.80;99.90;;;;;;5038338;28;20676;-63
2021/03/17 00:17:45;;;;;;;36.13;21.13;;;5.80;99.90;;;;;;5041992;28;20199;-63
2021/03/17 00:20:12;;;;;;;35.07;21.47;;;5.70;99.90;;;;;;5040478;28;20254;-64
2021/03/17 00:22:39;;;;;;;33.03;21.23;;;5.80;99.90;;;;;;5040100;28;20243;-67
2021/03/17 00:25:06;;;;;;;32.73;19.93;;;5.80;99.90;;;;;;5040608;28;20246;-69
2021/03/17 00:27:33;;;;;;;31.10;19.87;;;5.80;99.90;;;;;;5041425;28;20254;-64
2021/03/17 00:29:59;;;;;;;33.10;22.13;;;5.80;99.90;;;;;;5046744;28;20402;-67
2021/03/17 00:32:26;;;;;;;35.50;23.57;;;5.80;99.90;;;;;;5042189;28;20196;-63
2021/03/17 00:34:53;;;;;;;36.33;24.73;;;5.80;99.90;;;;;;5042172;28;20574;-66
2021/03/17 00:37:20;;;;;;;37.10;25.10;;;5.80;99.90;;;;;;5043292;28;20208;-68
2021/03/17 00:39:46;;;;;;;39.60;27.43;;;5.80;99.90;;;;;;5041837;28;20208;-67
2021/03/17 00:42:13;;;;;;;35.33;23.70;;;5.80;99.90;;;;;;5040007;28;20656;-63
2021/03/17 00:44:39;;;;;;;35.17;23.93;;;5.80;99.90;;;;;;5038165;28;20241;-69
2021/03/17 00:47:05;;;;;;;33.33;20.90;;;5.80;99.90;;;;;;5043370;28;20200;-64
2021/03/17 00:49:32;;;;;;;32.70;21.17;;;5.70;99.90;;;;;;5040246;28;20224;-65
2021/03/17 00:51:59;;;;;;;33.57;23.07;;;5.70;99.90;;;;;;5038754;28;21138;-63
2021/03/17 00:54:26;;;;;;;35.73;23.63;;;5.70;99.90;;;;;;5039926;28;20199;-62
2021/03/17 00:56:52;;;;;;;39.53;25.03;;;5.60;99.90;;;;;;5041888;28;20625;-63
2021/03/17 00:59:19;;;;;;;38.27;25.50;;;5.60;99.90;;;;;;5043003;28;20192;-63
2021/03/17 01:01:45;;;;;;;40.93;26.33;;;5.60;99.90;;;;;;5039300;28;20268;-63
2021/03/17 01:04:12;;;;;;;41.67;27.07;;;5.60;99.90;;;;;;5039950;28;20204;-64
2021/03/17 01:06:38;;;;;;;40.63;25.87;;;5.60;99.90;;;;;;5039042;28;20238;-63
2021/03/17 01:09:06;;;;;;;40.77;26.73;;;5.60;99.90;;;;;;5040123;28;20576;-63
2021/03/17 01:11:32;;;;;;;38.37;25.00;;;5.60;99.90;;;;;;5039982;28;20255;-63
2021/03/17 01:13:59;;;;;;;34.63;23.70;;;5.60;99.90;;;;;;5041974;28;22455;-62
2021/03/17 01:16:25;;;;;;;34.20;23.13;;;5.60;99.90;;;;;;5042448;28;20575;-63
2021/03/17 01:18:52;;;;;;;36.80;24.53;;;5.50;99.90;;;;;;5042211;28;20195;-63
2021/03/17 01:21:18;;;;;;;37.50;25.20;;;5.50;99.90;;;;;;5037411;28;20235;-64
2021/03/17 01:23:45;;;;;;;36.40;25.57;;;5.50;99.90;;;;;;5041912;28;20230;-63
2021/03/17 01:26:12;;;;;;;36.33;25.53;;;5.60;99.90;;;;;;5038720;28;20673;-64
2021/03/17 01:28:39;;;;;;;34.57;23.57;;;5.50;99.90;;;;;;5044052;28;20219;-63
2021/03/17 01:31:06;;;;;;;38.67;25.50;;;5.50;99.90;;;;;;5039525;28;20200;-65
2021/03/17 01:33:32;;;;;;;36.40;24.97;;;5.50;99.90;;;;;;5042058;28;20297;-62
2021/03/17 01:35:59;;;;;;;39.50;24.30;;;5.60;99.90;;;;;;5038653;28;20239;-62
2021/03/17 01:38:25;;;;;;;35.97;25.23;;;5.60;99.90;;;;;;5039685;28;20208;-63
2021/03/17 01:40:53;;;;;;;39.90;26.60;;;5.60;99.90;;;;;;5039777;28;20207;-63
2021/03/17 01:43:21;;;;;;;34.97;24.57;;;5.60;99.90;;;;;;5040544;28;20236;-62
2021/03/17 01:45:48;;;;;;;36.33;26.00;;;5.60;99.90;;;;;;5038035;28;20235;-63
2021/03/17 01:48:14;;;;;;;35.80;24.53;;;5.60;99.90;;;;;;5041082;28;20358;-63
2021/03/17 01:50:43;;;;;;;34.90;24.57;;;5.60;99.90;;;;;;5042792;28;20607;-63
2021/03/17 01:53:13;;;;;;;31.60;24.37;;;5.60;99.90;;;;;;5036443;28;20258;-63
2021/03/17 01:55:41;;;;;;;34.13;22.90;;;5.60;99.90;;;;;;5035104;28;20219;-63
2021/03/17 01:58:08;;;;;;;30.50;23.00;;;5.60;99.90;;;;;;5040541;28;20204;-64
2021/03/17 02:00:37;;;;;;;36.50;23.40;;;5.60;99.90;;;;;;5039242;28;20676;-65
2021/03/17 02:03:04;;;;;;;26.67;20.60;;;5.60;99.90;;;;;;5038979;28;20227;-63
2021/03/17 02:05:32;;;;;;;29.47;21.90;;;5.60;99.90;;;;;;5042283;28;20196;-63
2021/03/17 02:08:03;;;;;;;27.67;19.83;;;5.60;99.90;;;;;;5039536;28;20192;-62
2021/03/17 02:10:30;;;;;;;26.83;20.10;;;5.60;99.90;;;;;;5037676;28;20195;-66
2021/03/17 02:13:21;;;;;;;24.27;19.00;;;5.60;99.90;;;;;;5039539;28;20199;-64
2021/03/17 02:15:57;;;;;;;22.00;16.90;;;5.70;99.90;;;;;;5039032;28;20287;-62
2021/03/17 02:18:36;;;;;;;20.40;15.57;;;5.70;99.90;;;;;;5040826;28;20230;-62
2021/03/17 02:21:17;;;;;;;19.40;13.40;;;5.70;99.90;;;;;;5039399;28;20219;-63
2021/03/17 02:23:57;;;;;;;16.40;12.33;;;5.60;99.90;;;;;;5041120;28;20672;-63
2021/03/17 02:27:03;;;;;;;14.57;10.43;;;5.70;99.90;;;;;;5039484;28;20220;-64
2021/03/17 02:30:17;;;;;;;11.80;10.07;;;5.70;99.90;;;;;;5002140;28;20324;-63
2021/03/17 02:33:35;;;;;;;11.63;8.97;;;5.70;99.90;;;;;;4962875;28;20206;-62
2021/03/17 02:36:06;;;;;;;10.33;8.63;;;5.70;99.90;;;;;;5041260;28;20295;-64
2021/03/17 02:38:36;;;;;;;10.20;8.17;;;5.70;99.90;;;;;;5039799;28;20416;-63
2021/03/17 02:41:04;;;;;;;11.37;7.70;;;5.70;99.90;;;;;;5037366;28;21702;-64
2021/03/17 02:43:32;;;;;;;9.03;7.50;;;5.70;99.90;;;;;;5037998;28;22506;-62
2021/03/17 02:46:02;;;;;;;11.27;7.67;;;5.70;99.90;;;;;;5037092;28;20290;-62
2021/03/17 02:48:32;;;;;;;10.80;8.60;;;5.80;99.90;;;;;;5040769;28;20212;-62
2021/03/17 02:51:02;;;;;;;10.27;8.90;;;5.80;99.90;;;;;;5037717;28;20260;-67
2021/03/17 02:53:33;;;;;;;13.50;9.83;;;5.80;99.90;;;;;;5039628;28;20787;-63
2021/03/17 02:56:05;;;;;;;13.77;9.30;;;5.80;99.90;;;;;;5044545;28;20253;-64
2021/03/17 02:58:33;;;;;;;11.73;9.03;;;5.90;99.90;;;;;;5040078;28;20239;-62
2021/03/17 03:01:01;;;;;;;10.77;8.33;;;5.90;99.90;;;;;;5042138;28;20204;-63
2021/03/17 03:03:31;;;;;;;9.43;7.53;;;5.90;99.90;;;;;;5041322;28;21749;-63
2021/03/17 03:05:59;;;;;;;16.33;8.13;;;5.90;99.90;;;;;;5038448;28;20232;-63
2021/03/17 03:08:26;;;;;;;13.30;9.07;;;5.90;99.90;;;;;;5038983;28;20650;-62
2021/03/17 03:10:54;;;;;;;13.93;9.37;;;5.90;99.90;;;;;;5041615;28;20242;-63
2021/03/17 03:13:23;;;;;;;13.30;10.23;;;5.90;99.90;;;;;;5039064;28;20291;-63
2021/03/17 03:15:53;;;;;;;14.30;9.40;;;6.00;99.90;;;;;;5041682;28;20289;-65
2021/03/17 03:18:22;;;;;;;13.30;8.80;;;6.00;99.90;;;;;;5040983;28;20195;-64
2021/03/17 03:20:50;;;;;;;10.57;8.13;;;6.00;99.90;;;;;;5044505;28;20207;-64
2021/03/17 03:23:18;;;;;;;12.93;7.93;;;6.00;99.90;;;;;;5043207;28;20238;-62
2021/03/17 03:25:45;;;;;;;14.07;8.70;;;6.00;99.90;;;;;;5042497;28;20713;-62
2021/03/17 03:28:14;;;;;;;16.07;9.17;;;5.90;99.90;;;;;;5043055;28;20203;-63
2021/03/17 03:30:44;;;;;;;13.37;9.17;;;5.90;99.90;;;;;;5040634;28;20747;-63
2021/03/17 03:33:11;;;;;;;15.37;9.40;;;5.90;99.90;;;;;;5043835;28;20279;-63
2021/03/17 03:35:39;;;;;;;13.50;9.17;;;5.90;99.90;;;;;;5045240;28;20203;-63
2021/03/17 03:38:07;;;;;;;12.53;9.03;;;5.80;99.90;;;;;;5044209;28;20244;-64
2021/03/17 03:40:34;;;;;;;14.80;9.73;;;5.80;99.90;;;;;;5042589;28;20200;-62
2021/03/17 03:43:01;;;;;;;13.97;9.20;;;5.80;99.90;;;;;;5045957;28;20564;-64
2021/03/17 03:45:28;;;;;;;14.33;10.10;;;5.80;99.90;;;;;;5042376;28;20232;-63
2021/03/17 03:47:55;;;;;;;16.03;9.73;;;5.80;99.90;;;;;;5040546;28;20204;-62
2021/03/17 03:50:23;;;;;;;14.07;9.33;;;5.90;99.90;;;;;;5042466;28;20318;-62
2021/03/17 03:53:03;;;;;;;13.67;9.60;;;5.90;99.90;;;;;;5041894;28;20219;-67
2021/03/17 03:55:37;;;;;;;11.97;9.07;;;5.90;99.90;;;;;;5045308;28;20223;-64
2021/03/17 03:58:06;;;;;;;12.30;8.70;;;5.90;99.90;;;;;;5046304;28;20226;-63
2021/03/17 04:00:34;;;;;;;17.13;8.17;;;6.00;99.90;;;;;;5041609;28;20199;-63
2021/03/17 04:03:01;;;;;;;9.67;7.47;;;6.00;99.90;;;;;;5039975;28;20196;-64
2021/03/17 04:05:35;;;;;;;13.33;7.63;;;6.10;99.90;;;;;;5041577;28;20249;-63
2021/03/17 04:08:06;;;;;;;11.13;6.57;;;6.10;99.90;;;;;;5042215;28;20674;-65
2021/03/17 04:10:35;;;;;;;10.37;6.97;;;6.10;99.90;;;;;;5042626;28;20200;-63
2021/03/17 04:13:05;;;;;;;12.73;6.87;;;6.10;99.90;;;;;;5044302;28;20665;-64
2021/03/17 04:15:34;;;;;;;11.23;7.90;;;6.10;99.90;;;;;;5039624;28;20200;-65
2021/03/17 04:18:05;;;;;;;13.10;6.90;;;6.10;99.90;;;;;;5046173;28;20208;-63
2021/03/17 04:20:36;;;;;;;8.33;5.50;;;6.10;99.90;;;;;;5043293;28;20285;-60
2021/03/17 04:23:05;;;;;;;10.20;4.87;;;6.20;99.90;;;;;;5041233;28;20215;-63
2021/03/17 04:25:33;;;;;;;10.63;4.23;;;6.20;99.90;;;;;;5041502;28;20196;-63
2021/03/17 04:28:01;;;;;;;9.00;3.70;;;6.20;99.90;;;;;;5039850;28;20288;-63
2021/03/17 04:30:29;;;;;;;13.57;4.00;;;6.20;99.90;;;;;;5044620;28;20310;-63
2021/03/17 04:32:57;;;;;;;11.30;2.93;;;6.20;99.90;;;;;;5043049;28;20282;-67
2021/03/17 04:35:24;;;;;;;13.67;2.80;;;6.30;99.90;;;;;;5042110;28;20338;-63
2021/03/17 04:37:54;;;;;;;12.10;4.00;;;6.30;99.90;;;;;;5040902;28;20195;-64
2021/03/17 04:40:21;;;;;;;20.13;3.33;;;6.30;99.90;;;;;;5041736;28;20219;-63
2021/03/17 04:42:49;;;;;;;17.80;3.67;;;6.30;99.90;;;;;;5041006;28;20201;-63
2021/03/17 04:45:17;;;;;;;18.37;4.60;;;6.30;99.90;;;;;;5044939;28;20293;-62
2021/03/17 04:47:45;;;;;;;21.97;5.20;;;6.30;99.90;;;;;;5042158;28;20251;-63
2021/03/17 04:50:14;;;;;;;25.73;5.10;;;6.30;99.90;;;;;;5039937;28;21009;-64
2021/03/17 04:52:42;;;;;;;30.67;5.83;;;6.40;99.90;;;;;;5041345;28;20733;-67
2021/03/17 04:55:10;;;;;;;30.47;4.77;;;6.40;99.90;;;;;;5040521;28;20223;-64
2021/03/17 04:57:38;;;;;;;22.63;4.10;;;6.40;99.90;;;;;;5043006;28;20200;-63
2021/03/17 05:00:08;;;;;;;22.37;4.30;;;6.50;99.90;;;;;;5040942;28;20210;-64
2021/03/17 05:02:37;;;;;;;20.43;4.17;;;6.50;99.90;;;;;;5039169;28;20204;-65
2021/03/17 05:05:06;;;;;;;16.07;3.00;;;6.50;99.90;;;;;;5042058;28;20238;-62
2021/03/17 05:07:33;;;;;;;13.93;2.73;;;6.50;99.90;;;;;;5039895;28;20249;-66
2021/03/17 05:10:00;;;;;;;9.40;2.57;;;6.40;99.90;;;;;;5042374;28;20219;-65
2021/03/17 05:12:27;;;;;;;9.00;2.83;;;6.40;99.90;;;;;;5041689;28;20810;-64
2021/03/17 05:14:54;;;;;;;11.33;2.53;;;6.30;99.90;;;;;;5041732;28;20473;-64
2021/03/17 05:17:22;;;;;;;11.20;2.20;;;6.20;99.90;;;;;;5041986;28;20729;-66
2021/03/17 05:19:49;;;;;;;9.47;2.07;;;6.20;99.90;;;;;;5044173;28;20207;-62
2021/03/17 05:22:16;;;;;;;6.93;2.10;;;6.20;99.90;;;;;;5039543;28;20235;-64
2021/03/17 05:24:43;;;;;;;6.43;2.17;;;6.20;99.90;;;;;;5043683;28;20199;-65
2021/03/17 05:27:14;;;;;;;8.70;1.90;;;6.20;99.90;;;;;;5046714;28;20203;-62
2021/03/17 05:29:43;;;;;;;8.97;2.33;;;6.20;99.90;;;;;;5043290;28;20229;-63
2021/03/17 05:32:10;;;;;;;14.00;3.27;;;6.20;99.90;;;;;;5045922;28;20230;-64
2021/03/17 05:34:55;;;;;;;16.67;2.60;;;6.30;99.90;;;;;;5042949;28;20223;-64
2021/03/17 05:37:22;;;;;;;9.03;2.60;;;6.30;99.90;;;;;;5041536;28;20216;-65
2021/03/17 05:39:49;;;;;;;12.80;2.07;;;6.30;99.90;;;;;;5044563;28;20235;-65
2021/03/17 05:42:16;;;;;;;10.37;2.07;;;6.30;99.90;;;;;;5041846;28;20299;-65
2021/03/17 05:44:43;;;;;;;15.90;2.67;;;6.30;99.90;;;;;;5041522;28;20211;-66
2021/03/17 05:47:10;;;;;;;11.67;2.20;;;6.30;99.90;;;;;;5042500;28;20692;-67
2021/03/17 05:49:38;;;;;;;12.33;2.20;;;6.30;99.90;;;;;;5040099;28;20237;-67
2021/03/17 05:52:07;;;;;;;10.00;2.80;;;6.30;99.90;;;;;;5047635;28;20322;-66
2021/03/17 05:54:33;;;;;;;8.33;1.60;;;6.30;99.90;;;;;;5042642;28;20217;-68
2021/03/17 05:57:01;;;;;;;10.23;2.80;;;6.30;99.90;;;;;;5042981;28;20940;-66
2021/03/17 05:59:29;;;;;;;13.60;2.70;;;6.30;99.90;;;;;;5042708;28;20196;-65
2021/03/17 06:01:57;;;;;;;9.83;2.63;;;6.30;99.90;;;;;;5042582;28;20365;-64
2021/03/17 06:04:26;;;;;;;11.23;2.60;;;6.30;99.90;;;;;;5041287;28;20235;-65
2021/03/17 06:06:56;;;;;;;40.77;6.87;;;6.30;99.90;;;;;;5039603;28;20561;-64
2021/03/17 06:09:25;;;;;;;53.03;9.87;;;6.40;99.90;;;;;;5040302;28;20212;-64
2021/03/17 06:11:53;;;;;;;57.33;10.93;;;6.40;99.90;;;;;;5040492;28;20227;-65
2021/03/17 06:14:21;;;;;;;57.40;10.27;;;6.50;99.90;;;;;;5040067;28;20203;-64
2021/03/17 06:16:59;;;;;;;52.60;10.10;;;6.50;99.90;;;;;;5039566;28;20229;-64
2021/03/17 06:19:27;;;;;;;62.97;11.17;;;6.50;99.90;;;;;;5035025;28;20199;-65
2021/03/17 06:21:55;;;;;;;48.30;10.33;;;6.50;99.90;;;;;;5039234;28;20286;-65
2021/03/17 06:24:23;;;;;;;58.80;11.57;;;6.60;99.90;;;;;;5041843;28;20207;-65
2021/03/17 06:26:50;;;;;;;48.83;9.33;;;6.60;99.90;;;;;;5038531;28;20257;-64
2021/03/17 06:29:16;;;;;;;43.87;8.87;;;6.60;99.90;;;;;;5039520;28;20226;-64
2021/03/17 06:31:43;;;;;;;68.53;12.50;;;6.60;99.90;;;;;;5038956;28;20195;-64
2021/03/17 06:34:10;;;;;;;82.23;11.97;;;6.60;99.90;;;;;;5041025;28;20242;-64
2021/03/17 06:36:48;;;;;;;61.03;10.70;;;6.60;99.90;;;;;;5037152;28;20587;-64
2021/03/17 06:39:16;;;;;;;58.83;9.40;;;6.60;99.90;;;;;;5039517;28;20648;-65
2021/03/17 06:41:45;;;;;;;64.97;11.10;;;6.60;99.90;;;;;;5036924;28;20665;-64
2021/03/17 06:44:12;;;;;;;59.60;10.50;;;6.60;99.90;;;;;;5038923;28;20223;-65
2021/03/17 06:46:38;;;;;;;47.53;10.90;;;6.60;99.90;;;;;;5044123;28;20268;-64
2021/03/17 06:49:05;;;;;;;52.77;9.50;;;6.60;99.90;;;;;;5041484;28;20767;-65
2021/03/17 06:51:32;;;;;;;57.27;10.90;;;6.60;99.90;;;;;;5043310;28;20226;-64
2021/03/17 06:54:00;;;;;;;54.23;9.80;;;6.60;99.90;;;;;;5041577;28;20195;-64
2021/03/17 06:56:29;;;;;;;46.33;8.37;;;6.60;99.90;;;;;;5043918;28;20199;-64
2021/03/17 06:58:58;;;;;;;30.70;6.77;;;6.60;99.90;;;;;;5042951;28;20204;-64
2021/03/17 07:01:35;;;;;;;38.23;7.30;;;6.60;99.90;;;;;;5040043;28;20231;-64
2021/03/17 07:04:05;;;;;;;43.37;8.03;;;6.50;99.90;;;;;;5044055;28;20200;-64
2021/03/17 07:06:32;;;;;;;40.93;7.43;;;6.60;99.90;;;;;;5043140;28;20200;-64
2021/03/17 07:09:12;;;;;;;37.23;7.70;;;6.60;99.90;;;;;;5041423;28;20262;-64
2021/03/17 07:11:40;;;;;;;43.63;8.47;;;6.60;99.90;;;;;;5042332;28;20273;-64
2021/03/17 07:14:06;;;;;;;40.63;8.10;;;6.60;99.90;;;;;;5045976;28;20684;-65
2021/03/17 07:16:36;;;;;;;37.93;8.10;;;6.60;99.90;;;;;;5044974;28;20196;-64
2021/03/17 07:19:04;;;;;;;32.90;6.87;;;6.60;99.90;;;;;;5042011;28;20706;-64
2021/03/17 07:21:36;;;;;;;38.60;7.97;;;6.60;99.90;;;;;;5041834;28;20223;-64
2021/03/17 07:24:04;;;;;;;30.27;6.60;;;6.60;99.90;;;;;;5047572;28;20198;-65
2021/03/17 07:26:33;;;;;;;34.60;6.87;;;6.60;99.90;;;;;;5042681;28;20196;-64
2021/03/17 07:29:07;;;;;;;32.97;6.17;;;6.70;99.90;;;;;;5041536;28;20227;-64
2021/03/17 07:31:35;;;;;;;34.10;7.10;;;6.60;99.90;;;;;;5043435;28;20192;-64
2021/03/17 07:34:11;;;;;;;27.63;7.23;;;6.70;99.90;;;;;;5043913;28;20203;-64
2021/03/17 07:36:40;;;;;;;36.47;7.80;;;6.70;99.90;;;;;;5045580;28;21104;-64
2021/03/17 07:39:09;;;;;;;32.20;6.60;;;6.70;99.90;;;;;;5041803;28;20206;-65
2021/03/17 07:41:37;;;;;;;27.07;5.53;;;6.80;99.90;;;;;;5041332;28;20261;-65
2021/03/17 07:44:07;;;;;;;24.13;5.60;;;6.80;99.90;;;;;;5039171;28;20234;-65
2021/03/17 07:46:35;;;;;;;27.57;6.30;;;6.80;99.90;;;;;;5038301;28;20230;-64
2021/03/17 07:49:02;;;;;;;24.70;4.63;;;6.80;99.90;;;;;;5042882;28;20256;-64
2021/03/17 07:51:30;;;;;;;14.27;3.60;;;6.80;99.90;;;;;;5040045;28;20234;-67
2021/03/17 07:53:59;;;;;;;13.97;3.63;;;6.80;99.90;;;;;;5044347;28;20199;-71
2021/03/17 07:56:25;;;;;;;9.27;2.50;;;6.80;99.90;;;;;;5040689;28;20307;-65
2021/03/17 07:58:53;;;;;;;3.63;2.20;;;6.80;99.90;;;;;;5042191;28;20199;-64
2021/03/17 08:01:22;;;;;;;9.23;2.77;;;6.80;99.90;;;;;;5042439;28;20223;-68
2021/03/17 08:03:50;;;;;;;5.83;1.77;;;6.80;99.90;;;;;;5041882;28;20228;-66
2021/03/17 08:06:17;;;;;;;6.67;2.20;;;6.90;99.90;;;;;;5039586;28;20211;-69
2021/03/17 08:08:44;;;;;;;8.00;1.73;;;7.00;99.90;;;;;;5043747;28;20295;-70
2021/03/17 08:11:14;;;;;;;5.27;1.57;;;7.20;99.90;;;;;;5044586;28;20301;-69
2021/03/17 08:13:43;;;;;;;4.33;1.57;;;7.30;99.90;;;;;;5046649;28;20206;-66
2021/03/17 08:16:12;;;;;;;8.73;2.03;;;7.20;99.90;;;;;;5044678;28;20208;-67
2021/03/17 08:18:47;;;;;;;7.53;2.03;;;7.10;99.90;;;;;;5042995;28;20212;-67
2021/03/17 08:21:14;;;;;;;4.23;1.70;;;7.10;99.90;;;;;;5043463;28;20260;-67
2021/03/17 08:23:43;;;;;;;6.03;2.13;;;7.10;99.90;;;;;;5047037;28;20625;-65
2021/03/17 08:26:12;;;;;;;6.10;1.87;;;7.10;99.90;;;;;;5042416;28;20679;-66
2021/03/17 08:28:50;;;;;;;9.20;1.90;;;7.10;99.90;;;;;;5044756;28;20204;-65
2021/03/17 08:31:50;;;;;;;4.17;1.10;;;7.00;99.90;;;;;;5045768;28;20211;-64
2021/03/17 08:34:28;;;;;;;5.77;1.30;;;6.90;99.90;;;;;;5044839;28;22364;-64
2021/03/17 08:36:58;;;;;;;6.40;1.80;;;6.80;99.90;;;;;;5046189;28;20651;-71
2021/03/17 08:39:44;;;;;;;7.63;1.90;;;6.60;99.90;;;;;;5050703;28;20671;-64
2021/03/17 08:42:13;;;;;;;4.47;1.77;;;6.60;99.90;;;;;;5048472;28;20283;-64
2021/03/17 08:44:48;;;;;;;4.93;1.67;;;6.60;99.90;;;;;;5049517;28;20554;-64
2021/03/17 08:47:18;;;;;;;5.57;1.60;;;6.50;99.90;;;;;;5048094;28;20236;-63
2021/03/17 08:49:46;;;;;;;4.47;1.87;;;6.50;99.90;;;;;;5049469;28;20254;-63
2021/03/17 08:52:14;;;;;;;10.80;2.40;;;6.50;99.90;;;;;;5050551;28;20203;-63
2021/03/17 08:55:00;;;;;;;7.07;1.40;;;6.50;99.90;;;;;;5051652;28;20195;-65
2021/03/17 08:57:52;;;;;;;9.20;1.63;;;6.50;99.90;;;;;;5051622;28;20194;-62
2021/03/17 09:00:48;;;;;;;11.43;2.30;;;6.50;99.90;;;;;;5041777;28;20732;-64
2021/03/17 09:03:45;;;;;;;14.43;2.30;;;6.40;99.90;;;;;;5051203;28;20222;-65
2021/03/17 09:06:24;;;;;;;10.67;2.10;;;6.40;99.90;;;;;;5045837;28;20215;-63
2021/03/17 09:09:00;;;;;;;6.17;1.70;;;6.40;99.90;;;;;;5045559;28;20207;-63
2021/03/17 09:12:00;;;;;;;8.00;1.70;;;6.50;99.90;;;;;;5048758;28;20298;-65
2021/03/17 09:14:30;;;;;;;6.83;1.90;;;6.70;99.90;;;;;;5044610;28;20247;-65
2021/03/17 09:17:20;;;;;;;6.90;1.83;;;7.00;99.90;;;;;;5043285;28;20208;-63
2021/03/17 09:19:59;;;;;;;13.03;2.30;;;7.00;99.90;;;;;;5043831;28;20238;-64
2021/03/17 09:22:36;;;;;;;10.33;1.90;;;7.60;99.90;;;;;;5049388;28;20196;-63
2021/03/17 09:25:13;;;;;;;13.20;1.83;;;8.30;99.90;;;;;;5040815;28;20203;-69
2021/03/17 09:27:51;;;;;;;7.10;1.77;;;8.60;99.90;;;;;;5048316;28;20725;-63
2021/03/17 09:30:19;;;;;;;3.30;1.10;;;8.70;99.90;;;;;;5044053;28;20555;-63
2021/03/17 09:32:47;;;;;;;6.60;1.10;;;8.50;99.90;;;;;;5046286;28;20211;-65
2021/03/17 09:35:14;;;;;;;3.80;1.00;;;8.30;99.90;;;;;;5051776;28;20207;-63
2021/03/17 09:37:42;;;;;;;6.23;1.37;;;8.00;99.90;;;;;;5049532;28;20202;-65
2021/03/17 09:40:13;;;;;;;4.73;1.00;;;7.70;99.90;;;;;;5042972;28;20205;-63
2021/03/17 09:42:39;;;;;;;2.93;1.23;;;7.70;99.90;;;;;;5049123;28;20249;-65
2021/03/17 09:45:08;;;;;;;2.57;1.70;;;7.70;99.90;;;;;;5045020;28;20258;-64
2021/03/17 09:47:34;;;;;;;4.43;1.10;;;7.80;99.90;;;;;;5042237;28;20199;-64
2021/03/17 09:50:01;;;;;;;5.70;1.10;;;7.80;99.90;;;;;;5043317;28;20227;-64
2021/03/17 09:52:27;;;;;;;5.03;0.73;;;7.70;99.90;;;;;;5048989;28;20223;-65
2021/03/17 09:54:55;;;;;;;5.80;1.07;;;7.60;99.90;;;;;;5044916;28;20224;-64
2021/03/17 09:57:23;;;;;;;2.37;1.20;;;7.60;99.90;;;;;;5046998;28;20200;-66
2021/03/17 09:59:50;;;;;;;2.67;1.20;;;7.60;99.90;;;;;;5047635;28;20229;-64
2021/03/17 10:02:21;;;;;;;5.87;1.67;;;7.60;99.90;;;;;;5046185;28;20264;-64
2021/03/17 10:04:53;;;;;;;8.17;2.70;;;7.70;99.90;;;;;;5044555;28;20565;-66
2021/03/17 10:07:22;;;;;;;6.87;1.30;;;7.60;99.90;;;;;;5048597;28;20286;-67
2021/03/17 10:09:50;;;;;;;5.30;1.13;;;7.60;99.90;;;;;;5045527;28;20326;-64
2021/03/17 10:12:19;;;;;;;6.07;2.07;;;7.70;99.90;;;;;;5044098;28;20231;-67
2021/03/17 10:14:48;;;;;;;7.30;1.60;;;7.70;99.90;;;;;;5051532;28;20611;-65
2021/03/17 10:17:17;;;;;;;3.73;1.30;;;7.80;99.90;;;;;;5043704;28;20207;-65
2021/03/17 10:19:47;;;;;;;7.77;2.40;;;7.80;99.90;;;;;;5040597;28;20220;-64
2021/03/17 10:22:16;;;;;;;8.37;1.77;;;7.80;99.90;;;;;;5043869;28;20205;-63
2021/03/17 10:24:45;;;;;;;7.53;1.60;;;8.00;99.90;;;;;;5041072;28;20718;-66
2021/03/17 10:27:13;;;;;;;6.57;1.20;;;8.10;99.90;;;;;;5037936;28;20657;-63
2021/03/17 10:29:42;;;;;;;11.77;2.00;;;8.20;99.90;;;;;;5040450;28;20225;-68
2021/03/17 10:32:13;;;;;;;6.23;1.77;;;8.00;99.90;;;;;;5045941;28;20199;-64
2021/03/17 10:34:39;;;;;;;6.37;1.90;;;8.00;99.90;;;;;;5043851;28;20254;-64
2021/03/17 10:37:11;;;;;;;6.23;1.27;;;8.00;99.90;;;;;;5041861;28;20653;-67
2021/03/17 10:39:38;;;;;;;7.03;1.63;;;8.00;99.90;;;;;;5045213;28;20221;-70
2021/03/17 10:42:17;;;;;;;9.17;1.50;;;8.00;99.90;;;;;;5042439;28;20220;-67
2021/03/17 10:45:01;;;;;;;6.67;2.03;;;7.90;99.90;;;;;;5044664;28;20629;-66
2021/03/17 10:47:27;;;;;;;7.80;1.93;;;7.80;99.90;;;;;;5039794;28;20190;-65
2021/03/17 10:49:54;;;;;;;7.17;1.63;;;7.60;99.90;;;;;;5042789;28;20231;-66
2021/03/17 10:52:20;;;;;;;10.00;1.90;;;7.70;99.90;;;;;;5049320;28;21280;-67
2021/03/17 10:54:48;;;;;;;7.60;1.33;;;7.80;99.90;;;;;;5045513;28;20191;-66
2021/03/17 10:57:21;;;;;;;8.40;1.80;;;8.10;99.90;;;;;;5038879;28;20200;-67
2021/03/17 10:59:49;;;;;;;9.00;2.03;;;8.20;99.90;;;;;;5043079;28;20195;-66
2021/03/17 11:02:19;;;;;;;5.67;1.77;;;8.10;99.90;;;;;;5046815;28;20200;-64
2021/03/17 11:05:22;;;;;;;6.77;1.50;;;8.10;99.90;;;;;;5042084;28;20417;-67
2021/03/17 11:08:10;;;;;;;4.63;1.80;;;8.00;99.90;;;;;;4959501;28;20248;-66
2021/03/17 11:10:53;;;;;;;9.87;2.37;;;8.00;99.90;;;;;;4960195;28;20287;-67
2021/03/17 11:13:38;;;;;;;12.57;2.20;;;8.00;99.90;;;;;;4965260;28;20206;-67
2021/03/17 11:16:12;;;;;;;11.43;1.90;;;7.80;99.90;;;;;;4960834;28;20211;-67
2021/03/17 11:18:45;;;;;;;8.27;1.70;;;7.80;99.90;;;;;;4962975;28;20209;-66
2021/03/17 11:21:18;;;;;;;6.53;2.20;;;8.00;99.90;;;;;;4960521;28;20211;-66
2021/03/17 11:23:44;;;;;;;6.83;1.73;;;8.20;99.90;;;;;;4964863;28;20226;-67
2021/03/17 11:26:20;;;;;;;6.53;2.00;;;8.50;99.90;;;;;;4959211;28;20257;-67
2021/03/17 11:28:48;;;;;;;8.10;1.70;;;8.50;99.90;;;;;;4963223;28;20203;-65
2021/03/17 11:31:27;;;;;;;7.73;1.73;;;8.60;99.90;;;;;;4961738;28;20225;-65
2021/03/17 11:33:53;;;;;;;8.67;1.83;;;8.60;99.90;;;;;;4965745;28;20203;-68
2021/03/17 11:36:21;;;;;;;4.73;1.83;;;8.80;99.90;;;;;;4957089;28;20234;-66
2021/03/17 11:38:48;;;;;;;8.57;2.83;;;8.90;99.90;;;;;;5008084;28;20194;-64
2021/03/17 11:41:14;;;;;;;7.67;1.77;;;9.00;99.90;;;;;;5039509;28;20242;-63
2021/03/17 11:43:41;;;;;;;8.17;2.07;;;9.00;99.90;;;;;;5042933;28;20238;-65
2021/03/17 11:46:07;;;;;;;6.40;1.67;;;8.70;99.90;;;;;;5046299;28;20195;-68
2021/03/17 11:48:35;;;;;;;8.23;2.47;;;8.50;99.90;;;;;;5042212;28;20223;-69
2021/03/17 11:51:05;;;;;;;5.33;1.87;;;8.40;99.90;;;;;;5039129;28;20230;-71
2021/03/17 11:53:33;;;;;;;5.43;2.10;;;8.20;99.90;;;;;;5044919;28;20284;-70
2021/03/17 11:56:00;;;;;;;8.07;1.77;;;8.10;99.90;;;;;;5044140;28;20199;-65
2021/03/17 11:58:27;;;;;;;7.70;1.70;;;8.10;99.90;;;;;;5043711;28;20231;-66
2021/03/17 12:00:53;;;;;;;9.83;2.97;;;8.00;99.90;;;;;;5041473;28;20230;-64
2021/03/17 12:03:20;;;;;;;8.93;1.93;;;8.00;99.90;;;;;;5044663;28;20664;-64
2021/03/17 12:05:47;;;;;;;9.40;2.27;;;8.10;99.90;;;;;;5037758;28;20227;-63
2021/03/17 12:08:15;;;;;;;13.13;2.00;;;8.20;99.90;;;;;;5039813;28;20229;-63
2021/03/17 12:10:42;;;;;;;14.80;2.23;;;8.30;99.90;;;;;;5039203;28;20308;-62
2021/03/17 12:13:09;;;;;;;9.53;2.67;;;8.30;99.90;;;;;;5034267;28;20196;-63
2021/03/17 12:15:36;;;;;;;11.87;2.67;;;8.40;99.90;;;;;;5043110;28;20730;-64
2021/03/17 12:18:03;;;;;;;7.70;2.10;;;8.30;99.90;;;;;;5045625;28;20672;-62
2021/03/17 12:20:32;;;;;;;10.97;1.97;;;8.30;99.90;;;;;;5042695;28;20211;-62
2021/03/17 12:23:00;;;;;;;8.03;2.33;;;8.20;99.90;;;;;;5042820;28;20208;-62
2021/03/17 12:25:27;;;;;;;11.67;2.33;;;8.10;99.90;;;;;;5044402;28;20291;-62
2021/03/17 12:27:54;;;;;;;14.93;2.70;;;8.20;99.90;;;;;;5046320;28;20228;-64
2021/03/17 12:30:22;;;;;;;10.83;2.60;;;8.40;99.90;;;;;;5041599;28;20713;-67
2021/03/17 12:32:50;;;;;;;9.67;2.50;;;8.50;99.90;;;;;;5041025;28;20687;-62
2021/03/17 12:35:18;;;;;;;13.70;2.17;;;8.70;99.90;;;;;;5047950;28;20204;-63
2021/03/17 12:37:46;;;;;;;14.13;3.13;;;8.70;99.90;;;;;;5041950;28;20244;-62
2021/03/17 12:40:16;;;;;;;13.50;2.37;;;8.60;99.90;;;;;;5044518;28;20199;-63
2021/03/17 12:42:43;;;;;;;12.77;2.53;;;8.40;99.90;;;;;;5042878;28;20719;-65
2021/03/17 12:45:12;;;;;;;14.17;3.00;;;8.40;99.90;;;;;;5043012;28;20195;-64
2021/03/17 12:47:39;;;;;;;20.67;3.47;;;8.60;99.90;;;;;;5047538;28;20682;-65
2021/03/17 12:50:09;;;;;;;11.03;2.70;;;8.70;99.90;;;;;;5044475;28;20254;-62
2021/03/17 12:52:36;;;;;;;9.37;2.90;;;8.80;99.90;;;;;;5042311;28;20196;-64
2021/03/17 12:55:03;;;;;;;20.87;4.43;;;8.80;99.90;;;;;;5040609;28;21217;-64
2021/03/17 12:57:30;;;;;;;11.00;3.23;;;8.90;99.90;;;;;;5042126;28;20207;-64
2021/03/17 12:59:57;;;;;;;20.53;3.87;;;9.00;99.90;;;;;;5044819;28;20608;-62
2021/03/17 13:02:24;;;;;;;18.43;3.73;;;9.00;99.90;;;;;;5042270;28;20215;-64